createdAt,value
2019-02-15T00:02:21.894Z,5.00
2019-02-15T00:04:51.576Z,5.00
2019-02-15T00:07:21.307Z,5.00
2019-02-15T00:09:51.093Z,5.00
2019-02-15T00:12:20.780Z,5.00
2019-02-15T00:14:50.526Z,5.00
2019-02-15T00:17:39.144Z,5.10
2019-02-15T00:20:13.272Z,5.00
2019-02-15T00:22:43.002Z,5.10
2019-02-15T00:25:12.744Z,5.10
2019-02-15T00:27:42.520Z,5.00
2019-02-15T00:30:12.770Z,5.00
2019-02-15T00:32:42.516Z,5.00
2019-02-15T00:35:12.250Z,5.00
2019-02-15T00:37:41.952Z,5.00
2019-02-15T00:40:11.657Z,5.10
2019-02-15T00:42:41.471Z,5.20
2019-02-15T00:45:12.783Z,5.20
2019-02-15T00:47:50.254Z,5.20
2019-02-15T00:50:48.279Z,5.10
2019-02-15T00:53:38.251Z,5.10
2019-02-15T00:56:21.811Z,5.00
2019-02-15T00:58:57.743Z,4.90
2019-02-15T01:01:53.417Z,4.80
2019-02-15T01:04:37.046Z,4.80
2019-02-15T01:07:38.082Z,4.70
2019-02-15T01:10:26.451Z,4.60
2019-02-15T01:13:03.613Z,4.60
2019-02-15T01:15:33.331Z,4.50
2019-02-15T01:18:03.710Z,4.50
2019-02-15T01:20:33.429Z,4.40
2019-02-15T01:23:03.293Z,4.30
2019-02-15T01:25:39.778Z,4.20
2019-02-15T01:28:15.391Z,4.20
2019-02-15T01:31:05.286Z,4.10
2019-02-15T01:33:54.591Z,4.10
2019-02-15T01:36:35.951Z,4.10
2019-02-15T01:39:28.896Z,4.00
2019-02-15T01:42:16.558Z,3.90
2019-02-15T01:44:56.882Z,3.80
2019-02-15T01:47:30.151Z,3.80
2019-02-15T01:49:59.944Z,3.90
2019-02-15T01:52:29.728Z,3.90
2019-02-15T01:54:59.558Z,3.90
2019-02-15T01:57:29.373Z,3.90
2019-02-15T01:59:59.081Z,3.90
2019-02-15T02:02:30.150Z,3.90
2019-02-15T02:04:59.808Z,3.90
2019-02-15T02:07:29.703Z,3.90
2019-02-15T02:09:59.497Z,3.80
2019-02-15T02:12:29.205Z,3.80
2019-02-15T02:14:59.025Z,3.80
2019-02-15T02:17:28.755Z,3.90
2019-02-15T02:19:58.437Z,3.80
2019-02-15T02:22:28.206Z,3.80
2019-02-15T02:24:57.934Z,3.80
2019-02-15T02:27:27.703Z,3.80
2019-02-15T02:29:57.408Z,3.80
2019-02-15T02:32:27.126Z,3.80
2019-02-15T02:34:56.849Z,3.80
2019-02-15T02:37:26.580Z,3.70
2019-02-15T02:39:56.398Z,3.60
2019-02-15T02:42:26.063Z,3.60
2019-02-15T02:44:55.810Z,3.60
2019-02-15T02:47:25.511Z,3.50
2019-02-15T02:49:55.276Z,3.40
2019-02-15T02:52:24.975Z,3.40
2019-02-15T02:54:54.716Z,3.40
2019-02-15T02:57:24.410Z,3.40
2019-02-15T02:59:54.159Z,3.40
2019-02-15T03:02:23.868Z,3.40
2019-02-15T03:04:53.603Z,3.40
2019-02-15T03:07:23.296Z,3.40
2019-02-15T03:09:53.079Z,3.30
2019-02-15T03:12:22.775Z,3.30
2019-02-15T03:14:52.538Z,3.30
2019-02-15T03:17:22.230Z,3.30
2019-02-15T03:19:52.044Z,3.20
2019-02-15T03:22:21.745Z,3.10
2019-02-15T03:24:51.428Z,3.10
2019-02-15T03:27:21.212Z,3.10
2019-02-15T03:29:51.080Z,3.00
2019-02-15T03:32:20.885Z,3.00
2019-02-15T03:34:50.737Z,3.00
2019-02-15T03:37:42.331Z,3.00
2019-02-15T03:40:24.936Z,3.00
2019-02-15T03:42:54.735Z,3.00
2019-02-15T03:45:24.671Z,2.90
2019-02-15T03:47:54.470Z,2.90
2019-02-15T03:50:24.311Z,2.90
2019-02-15T03:52:53.974Z,2.80
2019-02-15T03:55:23.680Z,2.80
2019-02-15T03:57:53.351Z,2.70
2019-02-15T04:00:23.097Z,2.70
2019-02-15T04:02:52.738Z,2.70
2019-02-15T04:05:22.478Z,2.80
2019-02-15T04:07:52.216Z,2.80
2019-02-15T04:10:21.954Z,2.90
2019-02-15T04:12:51.646Z,2.90
2019-02-15T04:15:21.364Z,2.90
2019-02-15T04:17:51.033Z,2.90
2019-02-15T04:20:20.710Z,2.90
2019-02-15T04:22:50.451Z,2.90
2019-02-15T04:25:20.161Z,2.80
2019-02-15T04:27:49.928Z,2.80
2019-02-15T04:30:19.657Z,2.80
2019-02-15T04:32:49.434Z,2.70
2019-02-15T04:35:19.206Z,2.70
2019-02-15T04:37:50.972Z,2.70
2019-02-15T04:40:20.672Z,2.70
2019-02-15T04:42:50.486Z,2.70
2019-02-15T04:45:20.168Z,2.70
2019-02-15T04:47:49.925Z,2.70
2019-02-15T04:50:19.663Z,2.70
2019-02-15T04:52:49.374Z,2.70
2019-02-15T04:55:19.132Z,2.80
2019-02-15T04:57:48.792Z,2.80
2019-02-15T05:00:18.628Z,2.80
2019-02-15T05:02:48.320Z,2.80
2019-02-15T05:05:18.077Z,2.70
2019-02-15T05:07:47.815Z,2.70
2019-02-15T05:10:17.511Z,2.70
2019-02-15T05:12:47.168Z,2.70
2019-02-15T05:15:16.891Z,2.70
2019-02-15T05:17:46.621Z,2.80
2019-02-15T05:20:16.384Z,2.80
2019-02-15T05:22:46.054Z,2.70
2019-02-15T05:25:15.785Z,2.70
2019-02-15T05:27:45.519Z,2.70
2019-02-15T05:30:15.403Z,2.60
2019-02-15T05:32:55.028Z,2.60
2019-02-15T05:35:24.858Z,2.70
2019-02-15T05:37:54.512Z,2.70
2019-02-15T05:40:24.533Z,2.70
2019-02-15T05:42:54.266Z,2.70
2019-02-15T05:45:24.034Z,2.70
2019-02-15T05:47:58.227Z,2.70
2019-02-15T05:50:28.438Z,2.70
2019-02-15T05:52:58.242Z,2.70
2019-02-15T05:55:27.954Z,2.70
2019-02-15T06:00:53.783Z,2.70
2019-02-15T06:03:23.539Z,2.60
2019-02-15T06:05:53.861Z,2.70
2019-02-15T06:08:23.712Z,2.70
2019-02-15T06:11:06.495Z,2.70
2019-02-15T06:13:29.422Z,2.70
2019-02-15T06:16:00.417Z,2.70
2019-02-15T06:18:38.385Z,2.80
2019-02-15T06:21:08.107Z,2.70
2019-02-15T06:23:39.646Z,2.70
2019-02-15T06:26:09.502Z,2.80
2019-02-15T06:28:59.338Z,2.70
2019-02-15T06:31:35.718Z,2.80
2019-02-15T06:34:05.500Z,2.80
2019-02-15T06:36:37.569Z,2.80
2019-02-15T06:39:08.831Z,2.90
2019-02-15T06:41:38.590Z,3.00
2019-02-15T06:44:08.366Z,3.00
2019-02-15T06:46:38.298Z,2.90
2019-02-15T06:49:08.068Z,2.90
2019-02-15T06:51:43.210Z,3.00
2019-02-15T06:54:13.032Z,2.90
2019-02-15T06:56:42.868Z,3.00
2019-02-15T06:59:38.652Z,3.00
2019-02-15T07:02:26.330Z,3.00
2019-02-15T07:05:16.095Z,3.00
2019-02-15T07:07:45.935Z,3.10
2019-02-15T07:10:15.849Z,3.20
2019-02-15T07:12:45.652Z,3.20
2019-02-15T07:15:15.434Z,3.30
2019-02-15T07:17:45.394Z,3.40
2019-02-15T07:20:15.171Z,3.30
2019-02-15T07:22:51.708Z,3.30
2019-02-15T07:25:22.477Z,3.30
2019-02-15T07:27:52.312Z,3.30
2019-02-15T07:30:22.079Z,3.30
2019-02-15T07:32:51.851Z,3.30
2019-02-15T07:35:21.638Z,3.30
2019-02-15T07:41:12.430Z,3.30
2019-02-15T07:43:54.394Z,3.40
2019-02-15T07:46:25.536Z,3.40
2019-02-15T07:48:56.616Z,3.50
2019-02-15T07:51:27.517Z,3.60
2019-02-15T07:53:57.381Z,3.60
2019-02-15T07:56:27.258Z,3.70
2019-02-15T07:59:00.186Z,3.80
2019-02-15T08:01:30.037Z,3.80
2019-02-15T08:03:59.828Z,3.90
2019-02-15T08:06:33.521Z,4.00
2019-02-15T08:09:04.092Z,4.00
2019-02-15T08:11:33.926Z,4.00
2019-02-15T08:14:03.919Z,4.10
2019-02-15T08:16:33.875Z,4.10
2019-02-15T08:19:03.820Z,4.20
2019-02-15T08:21:33.759Z,4.30
2019-02-15T08:24:03.630Z,4.40
2019-02-15T08:26:33.644Z,4.50
2019-02-15T08:29:05.520Z,4.60
2019-02-15T08:31:39.800Z,4.70
2019-02-15T08:34:09.950Z,4.80
2019-02-15T08:36:40.968Z,5.00
2019-02-15T08:39:10.685Z,5.10
2019-02-15T08:41:40.517Z,5.20
2019-02-15T08:44:10.310Z,5.30
2019-02-15T08:46:40.057Z,5.40
2019-02-15T08:49:09.852Z,5.50
2019-02-15T08:51:43.566Z,5.60
2019-02-15T08:54:13.463Z,5.80
2019-02-15T08:56:43.520Z,5.90
2019-02-15T08:59:13.445Z,6.00
2019-02-15T09:01:44.918Z,6.10
2019-02-15T09:04:22.906Z,6.10
2019-02-15T09:06:55.593Z,6.30
2019-02-15T09:09:25.492Z,6.30
2019-02-15T09:11:56.641Z,6.40
2019-02-15T09:14:29.117Z,6.50
2019-02-15T09:16:59.116Z,6.70
2019-02-15T09:19:29.045Z,6.90
2019-02-15T09:21:58.899Z,7.00
2019-02-15T09:24:28.854Z,7.20
2019-02-15T09:27:00.242Z,7.60
2019-02-15T09:29:30.190Z,8.10
2019-02-15T09:32:00.090Z,8.60
2019-02-15T09:34:30.103Z,9.30
2019-02-15T09:36:59.888Z,9.60
2019-02-15T09:39:29.837Z,10.10
2019-02-15T09:41:59.661Z,10.50
2019-02-15T09:44:29.774Z,10.40
2019-02-15T09:46:59.519Z,10.70
2019-02-15T09:49:29.416Z,11.00
2019-02-15T09:51:59.238Z,11.40
2019-02-15T09:54:29.198Z,11.60
2019-02-15T09:56:59.009Z,11.70
2019-02-15T09:59:29.348Z,11.80
2019-02-15T10:01:59.265Z,12.00
2019-02-15T10:04:32.288Z,12.10
2019-02-15T10:07:02.051Z,12.20
2019-02-15T10:09:37.679Z,12.30
2019-02-15T10:12:07.560Z,12.50
2019-02-15T10:14:37.386Z,12.90
2019-02-15T10:17:12.773Z,12.80
2019-02-15T10:19:42.649Z,12.50
2019-02-15T10:22:12.726Z,12.70
2019-02-15T10:24:48.590Z,12.90
2019-02-15T10:27:18.571Z,13.40
2019-02-15T10:29:48.517Z,13.00
2019-02-15T10:32:18.265Z,13.40
2019-02-15T10:34:48.987Z,13.70
2019-02-15T10:37:18.869Z,14.10
2019-02-15T10:39:49.043Z,14.30
2019-02-15T10:42:19.179Z,15.00
2019-02-15T10:44:49.124Z,15.20
2019-02-15T10:47:24.938Z,14.50
2019-02-15T10:49:54.149Z,14.60
2019-02-15T10:52:36.054Z,15.20
2019-02-15T10:55:06.992Z,14.30
2019-02-15T10:57:36.977Z,14.30
2019-02-15T11:00:10.999Z,14.50
2019-02-15T11:02:41.124Z,14.70
2019-02-15T11:05:11.615Z,14.90
2019-02-15T11:07:41.545Z,15.30
2019-02-15T11:10:11.627Z,15.80
2019-02-15T11:12:41.420Z,16.10
2019-02-15T11:15:12.361Z,16.10
2019-02-15T11:17:42.214Z,17.10
2019-02-15T11:20:17.908Z,18.10
2019-02-15T11:22:47.789Z,18.30
2019-02-15T11:25:17.708Z,18.40
2019-02-15T11:27:52.403Z,18.60
2019-02-15T11:30:22.333Z,18.70
2019-02-15T11:32:52.192Z,17.30
2019-02-15T11:35:22.133Z,17.10
2019-02-15T11:37:51.898Z,17.70
2019-02-15T11:40:27.286Z,18.70
2019-02-15T11:42:57.202Z,18.70
2019-02-15T11:45:28.141Z,18.80
2019-02-15T11:47:58.072Z,17.70
2019-02-15T11:50:27.994Z,17.60
2019-02-15T11:52:57.894Z,17.70
2019-02-15T11:55:27.876Z,19.20
2019-02-15T11:58:06.823Z,19.50
2019-02-15T12:00:44.391Z,20.00
2019-02-15T12:03:14.325Z,20.50
2019-02-15T12:05:44.296Z,20.60
2019-02-15T12:08:14.231Z,20.30
2019-02-15T12:10:44.339Z,20.50
2019-02-15T12:13:14.228Z,20.00
2019-02-15T12:15:44.285Z,21.50
2019-02-15T12:18:14.163Z,21.40
2019-02-15T12:20:44.072Z,21.60
2019-02-15T12:23:16.926Z,21.60
2019-02-15T12:25:46.971Z,21.40
2019-02-15T12:28:17.754Z,22.30
2019-02-15T12:30:47.725Z,22.60
2019-02-15T12:33:17.431Z,23.60
2019-02-15T12:35:47.322Z,23.90
2019-02-15T12:38:19.645Z,23.70
2019-02-15T12:40:49.493Z,23.90
2019-02-15T12:43:19.279Z,24.40
2019-02-15T12:45:49.161Z,24.80
2019-02-15T12:48:18.952Z,24.60
2019-02-15T12:50:48.827Z,24.80
2019-02-15T12:53:19.201Z,25.30
2019-02-15T12:55:49.050Z,25.40
2019-02-15T12:58:18.879Z,24.70
2019-02-15T13:00:48.718Z,25.10
2019-02-15T13:03:18.457Z,23.90
2019-02-15T13:05:48.346Z,23.30
2019-02-15T13:08:18.381Z,22.80
2019-02-15T13:10:48.447Z,22.30
2019-02-15T13:13:18.509Z,22.70
2019-02-15T13:15:48.357Z,23.30
2019-02-15T13:18:24.241Z,24.10
2019-02-15T13:20:54.047Z,23.50
2019-02-15T13:23:24.118Z,23.00
2019-02-15T13:25:54.161Z,22.70
2019-02-15T13:28:24.190Z,22.90
2019-02-15T13:30:54.034Z,22.80
2019-02-15T13:33:23.934Z,23.10
2019-02-15T13:35:53.870Z,23.50
2019-02-15T13:38:24.060Z,24.40
2019-02-15T13:40:54.097Z,24.90
2019-02-15T13:43:23.975Z,24.90
2019-02-15T13:45:53.753Z,25.30
2019-02-15T13:48:23.601Z,25.90
2019-02-15T13:50:53.571Z,26.00
2019-02-15T13:53:23.434Z,26.50
2019-02-15T13:55:53.348Z,26.50
2019-02-15T13:58:24.044Z,25.90
2019-02-15T14:00:54.067Z,25.60
2019-02-15T14:03:23.911Z,25.40
2019-02-15T14:05:53.889Z,25.60
2019-02-15T14:08:23.872Z,24.50
2019-02-15T14:10:53.789Z,24.40
2019-02-15T14:13:23.934Z,23.10
2019-02-15T14:15:53.941Z,22.70
2019-02-15T14:18:23.921Z,22.80
2019-02-15T14:20:53.960Z,22.50
2019-02-15T14:23:23.931Z,22.90
2019-02-15T14:25:53.947Z,22.70
2019-02-15T14:28:24.036Z,23.10
2019-02-15T14:30:54.038Z,23.50
2019-02-15T14:33:23.992Z,23.30
2019-02-15T14:35:54.048Z,23.00
2019-02-15T14:38:23.887Z,22.40
2019-02-15T14:40:53.741Z,22.40
2019-02-15T14:43:23.701Z,22.80
2019-02-15T14:45:53.617Z,22.70
2019-02-15T14:48:23.577Z,22.40
2019-02-15T14:50:53.470Z,21.90
2019-02-15T14:53:23.287Z,21.60
2019-02-15T14:55:53.396Z,21.60
2019-02-15T14:58:24.210Z,21.60
2019-02-15T15:00:54.163Z,21.60
2019-02-15T15:03:24.049Z,21.40
2019-02-15T15:05:55.027Z,21.00
2019-02-15T15:08:25.552Z,21.10
2019-02-15T15:10:55.419Z,20.70
2019-02-15T15:13:30.690Z,20.60
2019-02-15T15:16:00.794Z,20.10
2019-02-15T15:18:30.759Z,19.80
2019-02-15T15:21:00.704Z,19.20
2019-02-15T15:23:30.626Z,18.70
2019-02-15T15:26:00.575Z,18.00
2019-02-15T15:28:30.502Z,18.00
2019-02-15T15:31:13.362Z,17.60
2019-02-15T15:33:44.385Z,17.40
2019-02-15T15:36:14.204Z,17.50
2019-02-15T15:38:44.176Z,17.70
2019-02-15T15:41:14.178Z,18.10
2019-02-15T15:43:44.050Z,18.10
2019-02-15T15:46:14.403Z,18.00
2019-02-15T15:48:44.459Z,17.90
2019-02-15T15:51:15.766Z,17.90
2019-02-15T15:53:45.801Z,17.60
2019-02-15T15:56:15.709Z,17.40
2019-02-15T15:58:51.570Z,17.10
2019-02-15T16:01:21.847Z,17.10
2019-02-15T16:03:51.919Z,17.00
2019-02-15T16:06:24.307Z,17.00
2019-02-15T16:08:53.644Z,17.10
2019-02-15T16:14:48.430Z,16.80
2019-02-15T16:17:18.544Z,16.60
2019-02-15T16:19:57.351Z,16.30
2019-02-15T16:22:27.399Z,15.90
2019-02-15T16:24:57.440Z,15.60
2019-02-15T16:27:27.222Z,15.30
2019-02-15T16:29:57.383Z,15.10
2019-02-15T16:32:27.339Z,15.00
2019-02-15T16:34:58.565Z,14.90
2019-02-15T16:37:28.531Z,14.70
2019-02-15T16:39:58.445Z,14.70
2019-02-15T16:42:28.305Z,14.60
2019-02-15T16:44:58.218Z,14.50
2019-02-15T16:47:31.312Z,14.40
2019-02-15T16:50:01.357Z,14.40
2019-02-15T16:52:31.219Z,14.30
2019-02-15T16:55:01.024Z,14.20
2019-02-15T16:57:30.883Z,14.20
2019-02-15T17:00:00.955Z,14.10
2019-02-15T17:02:30.951Z,14.00
2019-02-15T17:05:01.121Z,13.90
2019-02-15T17:07:31.179Z,13.80
2019-02-15T17:10:01.276Z,13.80
2019-02-15T17:12:31.417Z,13.70
2019-02-15T17:15:01.280Z,13.60
2019-02-15T17:17:31.285Z,13.50
2019-02-15T17:20:03.698Z,13.40
2019-02-15T17:22:36.688Z,13.20
2019-02-15T17:25:07.948Z,13.10
2019-02-15T17:27:37.928Z,13.00
2019-02-15T17:30:08.530Z,12.90
2019-02-15T17:32:38.693Z,12.70
2019-02-15T17:35:09.326Z,12.50
2019-02-15T17:37:39.319Z,12.40
2019-02-15T17:40:10.638Z,12.30
2019-02-15T17:42:40.722Z,12.20
2019-02-15T17:45:11.063Z,12.00
2019-02-15T17:47:42.334Z,11.90
2019-02-15T17:50:13.784Z,11.80
2019-02-15T17:52:43.654Z,11.90
2019-02-15T17:55:13.433Z,11.90
2019-02-15T17:57:43.294Z,12.00
2019-02-15T18:00:13.215Z,12.00
2019-02-15T18:02:43.069Z,12.00
2019-02-15T18:05:17.676Z,12.10
2019-02-15T18:07:48.719Z,12.10
2019-02-15T18:10:18.659Z,12.00
2019-02-15T18:12:48.648Z,12.00
2019-02-15T18:15:19.295Z,11.90
2019-02-15T18:17:50.650Z,11.80
2019-02-15T18:20:20.625Z,11.80
2019-02-15T18:22:50.595Z,11.70
2019-02-15T18:25:20.576Z,11.70
2019-02-15T18:27:50.527Z,11.60
2019-02-15T18:30:20.513Z,11.60
2019-02-15T18:32:50.493Z,11.60
2019-02-15T18:35:20.350Z,11.50
2019-02-15T18:37:50.108Z,11.50
2019-02-15T18:40:20.040Z,11.30
2019-02-15T18:42:49.944Z,11.30
2019-02-15T18:45:19.902Z,11.30
2019-02-15T18:47:50.271Z,11.30
2019-02-15T18:50:20.336Z,11.40
2019-02-15T18:52:50.243Z,11.50
2019-02-15T18:55:20.105Z,11.50
2019-02-15T18:57:50.106Z,11.50
2019-02-15T19:00:20.801Z,11.40
2019-02-15T19:02:50.975Z,11.40
2019-02-15T19:05:20.885Z,11.40
2019-02-15T19:07:50.767Z,11.40
2019-02-15T19:10:20.680Z,11.40
2019-02-15T19:12:50.775Z,11.40
2019-02-15T19:15:20.663Z,11.40
2019-02-15T19:17:50.675Z,11.40
2019-02-15T19:20:20.872Z,11.40
2019-02-15T19:22:50.896Z,11.40
2019-02-15T19:25:22.055Z,11.40
2019-02-15T19:27:52.020Z,11.40
2019-02-15T19:30:23.532Z,11.30
2019-02-15T19:32:56.008Z,11.30
2019-02-15T19:35:25.936Z,11.30
2019-02-15T19:37:55.902Z,11.30
2019-02-15T19:40:25.807Z,11.30
2019-02-15T19:42:56.169Z,11.20
2019-02-15T19:45:26.132Z,11.20
2019-02-15T19:47:56.050Z,11.20
2019-02-15T19:50:25.925Z,11.20
2019-02-15T19:52:56.970Z,11.10
2019-02-15T19:55:27.020Z,11.10
2019-02-15T19:57:56.936Z,11.10
2019-02-15T20:00:27.087Z,11.10
2019-02-15T20:02:57.080Z,11.00
2019-02-15T20:05:27.169Z,11.00
2019-02-15T20:07:57.316Z,10.90
2019-02-15T20:10:27.954Z,10.90
2019-02-15T20:12:58.223Z,10.90
2019-02-15T20:15:28.172Z,10.90
2019-02-15T20:17:58.098Z,10.80
2019-02-15T20:20:28.053Z,10.80
2019-02-15T20:22:58.232Z,10.80
2019-02-15T20:25:28.260Z,10.70
2019-02-15T20:27:58.318Z,10.70
2019-02-15T20:30:28.412Z,10.60
2019-02-15T20:32:58.389Z,10.60
2019-02-15T20:35:28.364Z,10.60
2019-02-15T20:37:58.437Z,10.60
2019-02-15T20:40:28.932Z,10.60
2019-02-15T20:42:59.065Z,10.60
2019-02-15T20:45:29.025Z,10.60
2019-02-15T20:47:59.822Z,10.50
2019-02-15T20:50:29.888Z,10.50
2019-02-15T20:53:01.743Z,10.40
2019-02-15T20:55:31.788Z,10.40
2019-02-15T20:58:01.781Z,10.40
2019-02-15T21:00:33.281Z,10.40
2019-02-15T21:03:03.196Z,10.30
2019-02-15T21:05:33.128Z,10.30
2019-02-15T21:08:03.007Z,10.30
2019-02-15T21:10:33.158Z,10.30
2019-02-15T21:13:03.110Z,10.30
2019-02-15T21:15:33.104Z,10.30
2019-02-15T21:18:02.975Z,10.30
2019-02-15T21:20:32.951Z,10.20
2019-02-15T21:23:02.808Z,10.20
2019-02-15T21:25:32.726Z,10.10
2019-02-15T21:28:02.630Z,10.10
2019-02-15T21:30:35.446Z,10.10
2019-02-15T21:33:05.333Z,10.00
2019-02-15T21:35:35.328Z,10.00
2019-02-15T21:38:05.268Z,10.00
2019-02-15T21:40:35.492Z,9.90
2019-02-15T21:43:05.474Z,9.90
2019-02-15T21:45:35.761Z,9.80
2019-02-15T21:48:05.569Z,9.80
2019-02-15T21:50:35.313Z,9.80
2019-02-15T21:53:05.200Z,9.70
2019-02-15T21:55:35.854Z,9.70
2019-02-15T21:58:05.725Z,9.70
2019-02-15T22:00:35.871Z,9.70
2019-02-15T22:03:05.737Z,9.60
2019-02-15T22:05:35.705Z,9.50
2019-02-15T22:08:05.768Z,9.50
2019-02-15T22:10:35.709Z,9.40
2019-02-15T22:13:05.650Z,9.40
2019-02-15T22:15:35.348Z,9.30
2019-02-15T22:18:05.516Z,9.30
2019-02-15T22:20:35.398Z,9.30
2019-02-15T22:23:04.971Z,9.20
2019-02-15T22:25:34.618Z,9.30
2019-02-15T22:28:04.183Z,9.20
2019-02-15T22:30:33.801Z,9.20
2019-02-15T22:33:03.361Z,9.10
2019-02-15T22:35:33.036Z,9.10
2019-02-15T22:38:02.675Z,9.00
2019-02-15T22:40:36.788Z,9.00
2019-02-15T22:43:20.866Z,9.00
2019-02-15T22:45:50.403Z,9.10
2019-02-15T22:48:19.921Z,9.10
2019-02-15T22:50:49.439Z,9.10
2019-02-15T22:53:18.883Z,9.10
2019-02-15T22:55:48.542Z,9.10
2019-02-15T22:58:18.306Z,9.00
2019-02-15T23:00:54.170Z,8.90
2019-02-15T23:03:25.104Z,8.90
2019-02-15T23:05:54.887Z,8.90
2019-02-15T23:08:24.415Z,8.90
2019-02-15T23:10:54.180Z,8.90
2019-02-15T23:13:23.851Z,8.90
2019-02-15T23:15:53.339Z,8.80
2019-02-15T23:18:24.889Z,8.80
2019-02-15T23:20:54.502Z,8.80
2019-02-15T23:23:25.476Z,8.80
2019-02-15T23:25:55.046Z,8.80
2019-02-15T23:28:24.658Z,8.80
2019-02-15T23:30:54.332Z,8.70
2019-02-15T23:33:23.860Z,8.60
2019-02-15T23:35:53.349Z,8.60
2019-02-15T23:38:22.898Z,8.50
2019-02-15T23:40:53.209Z,8.50
2019-02-15T23:43:22.805Z,8.50
2019-02-15T23:45:52.310Z,8.50
2019-02-15T23:48:21.744Z,8.40
2019-02-15T23:50:54.881Z,8.40
2019-02-15T23:53:22.642Z,8.30
2019-02-15T23:55:52.149Z,8.30
2019-02-15T23:58:21.658Z,8.20
